createdAt,value
2017-06-17T00:01:00.424Z,13.60
2017-06-17T00:03:27.957Z,13.60
2017-06-17T00:05:55.476Z,13.50
2017-06-17T00:08:23.020Z,13.50
2017-06-17T00:10:50.769Z,13.40
2017-06-17T00:13:18.316Z,13.30
2017-06-17T00:15:45.808Z,13.30
2017-06-17T00:18:13.415Z,13.20
2017-06-17T00:20:40.969Z,13.20
2017-06-17T00:23:08.461Z,13.20
2017-06-17T00:25:36.939Z,13.10
2017-06-17T00:28:04.534Z,13.10
2017-06-17T00:30:32.028Z,13.10
2017-06-17T00:32:59.588Z,13.00
2017-06-17T00:35:27.073Z,13.10
2017-06-17T00:37:54.588Z,13.10
2017-06-17T00:40:22.109Z,13.20
2017-06-17T00:42:49.656Z,13.20
2017-06-17T00:45:17.198Z,13.30
2017-06-17T00:47:44.680Z,13.30
2017-06-17T00:50:12.168Z,13.30
2017-06-17T00:52:40.549Z,13.20
2017-06-17T00:55:08.096Z,13.20
2017-06-17T00:57:35.588Z,13.20
2017-06-17T01:00:03.141Z,13.20
2017-06-17T01:02:30.724Z,13.20
2017-06-17T01:04:58.972Z,13.40
2017-06-17T01:07:26.544Z,13.40
2017-06-17T01:09:54.024Z,13.40
2017-06-17T01:12:21.533Z,13.50
2017-06-17T01:14:49.284Z,13.30
2017-06-17T01:17:16.769Z,13.40
2017-06-17T01:19:44.268Z,13.50
2017-06-17T01:22:11.817Z,13.50
2017-06-17T01:24:39.353Z,13.50
2017-06-17T01:27:06.905Z,13.60
2017-06-17T01:29:34.448Z,13.60
2017-06-17T01:32:01.984Z,13.60
2017-06-17T01:34:29.471Z,13.60
2017-06-17T01:36:57.068Z,13.60
2017-06-17T01:39:24.613Z,13.60
2017-06-17T01:41:52.109Z,13.50
2017-06-17T01:44:19.804Z,13.40
2017-06-17T01:46:47.284Z,13.50
2017-06-17T01:49:14.776Z,13.50
2017-06-17T01:51:43.061Z,13.60
2017-06-17T01:54:10.545Z,13.50
2017-06-17T01:56:38.028Z,13.50
2017-06-17T01:59:05.558Z,13.50
2017-06-17T02:01:33.800Z,13.60
2017-06-17T02:04:01.376Z,13.60
2017-06-17T02:06:28.900Z,13.70
2017-06-17T02:08:56.392Z,13.70
2017-06-17T02:11:23.876Z,13.70
2017-06-17T02:13:51.386Z,13.60
2017-06-17T02:16:18.880Z,13.60
2017-06-17T02:18:46.364Z,13.70
2017-06-17T02:21:32.746Z,13.70
2017-06-17T02:24:00.233Z,13.80
2017-06-17T02:26:27.936Z,13.80
2017-06-17T02:28:55.420Z,13.80
2017-06-17T02:31:22.895Z,13.80
2017-06-17T02:33:51.279Z,13.80
2017-06-17T02:36:18.765Z,13.80
2017-06-17T02:38:46.252Z,13.80
2017-06-17T02:41:13.754Z,13.70
2017-06-17T02:43:41.237Z,13.70
2017-06-17T02:46:08.797Z,13.60
2017-06-17T02:48:36.336Z,13.70
2017-06-17T02:51:03.886Z,13.60
2017-06-17T02:53:31.424Z,13.60
2017-06-17T02:55:58.963Z,13.70
2017-06-17T02:58:26.513Z,13.60
2017-06-17T03:00:54.256Z,13.60
2017-06-17T03:03:21.804Z,13.60
2017-06-17T03:05:49.284Z,13.70
2017-06-17T03:08:17.586Z,13.60
2017-06-17T03:10:45.072Z,13.60
2017-06-17T03:13:12.655Z,13.70
2017-06-17T03:15:40.196Z,13.60
2017-06-17T03:18:07.685Z,13.60
2017-06-17T03:20:35.173Z,13.70
2017-06-17T03:23:02.848Z,13.60
2017-06-17T03:25:30.340Z,13.70
2017-06-17T03:27:58.628Z,13.80
2017-06-17T03:30:26.173Z,13.80
2017-06-17T03:32:53.726Z,13.90
2017-06-17T03:35:21.257Z,13.90
2017-06-17T03:37:48.739Z,13.90
2017-06-17T03:40:16.244Z,13.90
2017-06-17T03:42:43.764Z,14.00
2017-06-17T03:45:12.024Z,14.30
2017-06-17T03:47:40.308Z,14.30
2017-06-17T03:50:07.852Z,14.30
2017-06-17T03:52:35.402Z,14.30
2017-06-17T03:55:02.935Z,14.30
2017-06-17T03:57:30.480Z,14.40
2017-06-17T03:59:58.024Z,14.40
2017-06-17T04:02:25.504Z,14.40
2017-06-17T04:04:53.116Z,14.40
2017-06-17T04:07:21.426Z,14.40
2017-06-17T04:09:48.919Z,14.30
2017-06-17T04:12:17.201Z,14.40
2017-06-17T04:14:44.694Z,14.40
2017-06-17T04:17:12.185Z,14.40
2017-06-17T04:19:39.934Z,14.30
2017-06-17T04:22:07.428Z,14.30
2017-06-17T04:24:34.921Z,14.40
2017-06-17T04:27:02.465Z,14.30
2017-06-17T04:29:30.009Z,14.40
2017-06-17T04:31:57.493Z,14.30
2017-06-17T04:34:25.197Z,14.40
2017-06-17T04:36:52.745Z,14.50
2017-06-17T04:39:20.248Z,14.60
2017-06-17T04:41:47.828Z,14.70
2017-06-17T04:44:15.312Z,14.60
2017-06-17T04:46:42.912Z,14.60
2017-06-17T04:49:10.454Z,14.70
2017-06-17T04:51:38.702Z,14.80
2017-06-17T04:54:07.076Z,14.70
2017-06-17T04:56:34.619Z,14.70
2017-06-17T04:59:02.108Z,14.60
2017-06-17T05:01:29.636Z,14.60
2017-06-17T05:03:57.120Z,14.60
2017-06-17T05:06:25.375Z,14.50
2017-06-17T05:08:52.885Z,14.50
2017-06-17T05:11:20.378Z,14.50
2017-06-17T05:13:48.664Z,14.60
2017-06-17T05:16:16.404Z,14.60
2017-06-17T05:18:43.948Z,14.70
2017-06-17T05:21:11.496Z,14.70
2017-06-17T05:23:38.996Z,14.70
2017-06-17T05:26:06.580Z,14.70
2017-06-17T05:28:34.120Z,14.90
2017-06-17T05:31:01.608Z,14.90
2017-06-17T05:33:29.127Z,15.00
2017-06-17T05:35:56.612Z,14.80
2017-06-17T05:38:24.192Z,14.90
2017-06-17T05:40:51.692Z,14.90
2017-06-17T05:43:19.213Z,14.90
2017-06-17T05:45:46.729Z,14.90
2017-06-17T05:48:14.254Z,14.80
2017-06-17T05:50:41.771Z,14.80
2017-06-17T05:53:09.256Z,14.90
2017-06-17T05:55:36.788Z,14.90
2017-06-17T05:58:04.346Z,15.00
2017-06-17T06:00:31.843Z,15.00
2017-06-17T06:02:59.420Z,15.10
2017-06-17T06:05:26.921Z,15.20
2017-06-17T06:07:54.509Z,15.20
2017-06-17T06:10:22.244Z,15.20
2017-06-17T06:12:49.808Z,15.20
2017-06-17T06:15:17.363Z,15.30
2017-06-17T06:17:44.852Z,15.40
2017-06-17T06:20:12.348Z,15.40
2017-06-17T06:22:39.905Z,15.40
2017-06-17T06:25:07.420Z,15.40
2017-06-17T06:27:34.908Z,15.60
2017-06-17T06:30:02.505Z,15.70
2017-06-17T06:32:30.009Z,15.70
2017-06-17T06:34:58.336Z,15.70
2017-06-17T06:37:25.852Z,15.60
2017-06-17T06:39:53.396Z,15.70
2017-06-17T06:42:21.036Z,15.80
2017-06-17T06:44:48.531Z,15.70
2017-06-17T06:47:16.068Z,15.80
2017-06-17T06:49:43.669Z,15.80
2017-06-17T06:52:11.913Z,16.00
2017-06-17T06:54:39.459Z,15.90
2017-06-17T06:57:07.724Z,16.20
2017-06-17T06:59:35.200Z,16.20
2017-06-17T07:02:02.723Z,16.20
2017-06-17T07:04:30.208Z,16.20
2017-06-17T07:06:57.808Z,16.20
2017-06-17T07:09:25.352Z,16.20
2017-06-17T07:11:52.902Z,16.20
2017-06-17T07:14:20.436Z,16.20
2017-06-17T07:16:47.933Z,16.40
2017-06-17T07:19:15.584Z,16.40
2017-06-17T07:21:43.177Z,16.40
2017-06-17T07:24:11.460Z,16.70
2017-06-17T07:26:38.976Z,16.70
2017-06-17T07:29:06.472Z,16.70
2017-06-17T07:31:34.065Z,16.50
2017-06-17T07:34:01.605Z,16.60
2017-06-17T07:36:29.156Z,16.70
2017-06-17T07:38:56.692Z,16.70
2017-06-17T07:41:25.194Z,16.80
2017-06-17T07:43:52.737Z,16.90
2017-06-17T07:46:20.306Z,17.00
2017-06-17T07:48:47.907Z,17.00
2017-06-17T07:51:15.635Z,17.30
2017-06-17T07:53:43.284Z,17.40
2017-06-17T07:56:11.262Z,17.40
2017-06-17T07:58:38.880Z,17.50
2017-06-17T08:01:06.984Z,17.60
2017-06-17T08:03:34.484Z,17.70
2017-06-17T08:06:02.253Z,17.90
2017-06-17T08:08:29.741Z,18.00
2017-06-17T08:10:58.377Z,18.40
2017-06-17T08:13:27.405Z,18.40
2017-06-17T08:15:54.961Z,18.50
2017-06-17T08:18:22.501Z,18.60
2017-06-17T08:20:50.053Z,18.60
2017-06-17T08:23:17.556Z,18.60
2017-06-17T08:25:45.057Z,18.60
2017-06-17T08:28:12.576Z,18.70
2017-06-17T08:30:40.128Z,18.90
2017-06-17T08:33:07.612Z,18.80
2017-06-17T08:35:35.108Z,18.40
2017-06-17T08:38:02.633Z,18.60
2017-06-17T08:40:30.903Z,18.70
2017-06-17T08:42:58.446Z,18.70
2017-06-17T08:45:26.200Z,18.70
2017-06-17T08:47:53.746Z,18.60
2017-06-17T08:50:21.281Z,18.90
2017-06-17T08:52:48.835Z,19.20
2017-06-17T08:55:16.392Z,18.90
2017-06-17T08:57:43.952Z,18.80
2017-06-17T09:00:11.476Z,18.90
2017-06-17T09:02:39.003Z,19.10
2017-06-17T09:05:06.548Z,19.30
2017-06-17T09:07:34.088Z,19.10
2017-06-17T09:10:01.572Z,19.00
2017-06-17T09:12:29.080Z,19.10
2017-06-17T09:14:56.621Z,19.30
2017-06-17T09:17:24.110Z,19.30
2017-06-17T09:19:51.598Z,19.00
2017-06-17T09:22:19.100Z,19.20
2017-06-17T09:24:46.688Z,19.20
2017-06-17T09:27:14.217Z,19.30
2017-06-17T09:29:42.501Z,19.50
2017-06-17T09:32:10.040Z,19.50
2017-06-17T09:34:37.580Z,19.80
2017-06-17T09:37:05.253Z,19.80
2017-06-17T09:39:32.772Z,19.60
2017-06-17T09:42:00.521Z,19.70
2017-06-17T09:44:28.064Z,19.70
2017-06-17T09:46:55.565Z,20.00
2017-06-17T09:49:23.152Z,20.10
2017-06-17T09:51:50.712Z,20.30
2017-06-17T09:54:18.240Z,20.50
2017-06-17T09:56:45.785Z,20.50
2017-06-17T09:59:13.328Z,20.60
2017-06-17T10:01:40.868Z,20.70
2017-06-17T10:04:08.353Z,20.70
2017-06-17T10:06:35.836Z,20.70
2017-06-17T10:09:04.096Z,21.00
2017-06-17T10:11:32.393Z,21.00
2017-06-17T10:14:00.016Z,21.00
2017-06-17T10:16:27.556Z,20.70
2017-06-17T10:18:55.109Z,20.50
2017-06-17T10:21:23.631Z,20.10
2017-06-17T10:23:51.431Z,20.20
2017-06-17T10:26:18.964Z,20.50
2017-06-17T10:28:46.604Z,20.50
2017-06-17T10:31:14.097Z,20.40
2017-06-17T10:33:41.693Z,20.40
2017-06-17T10:36:09.288Z,20.30
2017-06-17T10:38:36.773Z,20.40
2017-06-17T10:41:05.042Z,20.60
2017-06-17T10:43:32.537Z,20.60
2017-06-17T10:46:00.233Z,20.70
2017-06-17T10:48:28.864Z,20.80
2017-06-17T10:50:56.474Z,20.90
2017-06-17T10:53:24.092Z,20.80
2017-06-17T10:55:51.590Z,20.70
2017-06-17T10:58:19.080Z,20.70
2017-06-17T11:00:46.620Z,20.90
2017-06-17T11:03:14.291Z,21.30
2017-06-17T11:05:41.808Z,21.20
2017-06-17T11:08:09.318Z,21.30
2017-06-17T11:10:37.575Z,21.90
2017-06-17T11:13:05.088Z,21.90
2017-06-17T11:15:32.605Z,22.00
2017-06-17T11:18:00.094Z,22.10
2017-06-17T11:20:27.684Z,21.90
2017-06-17T11:22:55.229Z,21.70
2017-06-17T11:25:22.777Z,21.50
2017-06-17T11:27:50.356Z,21.70
2017-06-17T11:30:17.961Z,21.70
2017-06-17T11:32:45.477Z,21.50
2017-06-17T11:35:13.765Z,21.40
2017-06-17T11:37:41.308Z,21.40
2017-06-17T11:40:08.858Z,21.40
2017-06-17T11:42:36.396Z,21.70
2017-06-17T11:45:03.892Z,22.00
2017-06-17T11:47:31.481Z,22.40
2017-06-17T11:49:59.758Z,22.90
2017-06-17T11:52:27.280Z,22.90
2017-06-17T11:54:54.828Z,23.40
2017-06-17T11:57:22.321Z,23.80
2017-06-17T11:59:49.942Z,24.00
2017-06-17T12:02:17.462Z,23.80
2017-06-17T12:04:45.208Z,23.30
2017-06-17T12:07:12.691Z,22.90
2017-06-17T12:09:40.193Z,22.70
2017-06-17T12:12:07.737Z,22.80
2017-06-17T12:14:35.283Z,22.90
2017-06-17T12:17:02.769Z,22.80
2017-06-17T12:19:30.269Z,22.50
2017-06-17T12:21:57.808Z,22.30
2017-06-17T12:24:25.444Z,22.10
2017-06-17T12:26:52.997Z,22.10
2017-06-17T12:29:20.540Z,22.10
2017-06-17T12:31:48.089Z,22.20
2017-06-17T12:34:15.576Z,22.60
2017-06-17T12:36:43.166Z,23.20
2017-06-17T12:39:10.712Z,23.90
2017-06-17T12:41:38.996Z,25.50
2017-06-17T12:44:06.516Z,25.40
2017-06-17T12:46:34.060Z,26.70
2017-06-17T12:49:01.550Z,28.80
2017-06-17T12:51:29.125Z,29.60
2017-06-17T12:53:57.412Z,29.80
2017-06-17T12:56:24.896Z,29.80
2017-06-17T12:58:52.420Z,29.60
2017-06-17T13:01:19.946Z,29.20
2017-06-17T13:03:47.453Z,29.40
2017-06-17T13:06:15.041Z,29.60
2017-06-17T13:08:42.524Z,29.70
2017-06-17T13:11:10.004Z,29.40
2017-06-17T13:13:37.492Z,28.60
2017-06-17T13:16:04.977Z,28.10
2017-06-17T13:18:33.382Z,26.90
2017-06-17T13:21:01.657Z,26.50
2017-06-17T13:23:29.936Z,25.50
2017-06-17T13:25:58.114Z,25.50
2017-06-17T13:28:25.644Z,25.10
2017-06-17T13:30:53.921Z,25.60
2017-06-17T13:33:21.428Z,25.60
2017-06-17T13:35:49.698Z,26.10
2017-06-17T13:38:17.190Z,26.10
2017-06-17T13:40:44.881Z,26.00
2017-06-17T13:43:12.428Z,26.40
2017-06-17T13:45:39.919Z,26.50
2017-06-17T13:48:07.444Z,26.50
2017-06-17T13:50:34.927Z,26.60
2017-06-17T13:53:03.184Z,27.10
2017-06-17T13:55:30.672Z,27.10
2017-06-17T13:57:58.200Z,27.10
2017-06-17T14:00:25.932Z,26.90
2017-06-17T14:02:54.211Z,25.50
2017-06-17T14:05:21.692Z,25.50
2017-06-17T14:07:49.192Z,25.10
2017-06-17T14:10:17.495Z,24.80
2017-06-17T14:12:44.980Z,24.80
2017-06-17T14:15:12.497Z,24.60
2017-06-17T14:17:40.000Z,24.70
2017-06-17T14:20:07.497Z,24.30
2017-06-17T14:22:35.088Z,24.00
2017-06-17T14:25:02.632Z,24.00
2017-06-17T14:27:30.120Z,24.10
2017-06-17T14:29:57.760Z,24.30
2017-06-17T14:32:25.288Z,24.50
2017-06-17T14:34:52.813Z,24.60
2017-06-17T14:37:20.344Z,24.50
2017-06-17T14:39:47.854Z,24.20
2017-06-17T14:42:15.436Z,24.10
2017-06-17T14:44:42.939Z,24.20
2017-06-17T14:47:10.424Z,24.20
2017-06-17T14:49:38.800Z,24.40
2017-06-17T14:52:06.296Z,24.30
2017-06-17T14:54:33.783Z,24.40
2017-06-17T14:57:01.399Z,24.50
2017-06-17T14:59:28.904Z,24.60
2017-06-17T15:01:56.392Z,24.70
2017-06-17T15:04:24.012Z,25.00
2017-06-17T15:06:51.497Z,25.00
2017-06-17T15:09:19.077Z,25.20
2017-06-17T15:11:46.960Z,25.30
2017-06-17T15:14:14.486Z,25.20
2017-06-17T15:16:42.118Z,25.00
2017-06-17T15:19:09.636Z,25.00
2017-06-17T15:21:37.922Z,24.60
2017-06-17T15:24:05.437Z,24.60
2017-06-17T15:26:33.724Z,23.90
2017-06-17T15:29:01.209Z,23.80
2017-06-17T15:31:28.901Z,23.40
2017-06-17T15:33:56.457Z,23.20
2017-06-17T15:36:23.995Z,23.40
2017-06-17T15:38:51.736Z,23.30
2017-06-17T15:41:19.216Z,23.40
2017-06-17T15:43:46.724Z,23.40
2017-06-17T15:46:14.504Z,23.50
2017-06-17T15:48:42.004Z,23.40
2017-06-17T15:51:09.608Z,23.40
2017-06-17T15:53:37.218Z,23.60
2017-06-17T15:56:04.748Z,24.00
2017-06-17T15:58:32.295Z,24.40
2017-06-17T16:00:59.900Z,24.40
2017-06-17T16:03:27.442Z,24.40
2017-06-17T16:05:54.932Z,24.30
2017-06-17T16:08:22.477Z,24.20
2017-06-17T16:10:50.064Z,24.10
2017-06-17T16:13:17.600Z,24.00
2017-06-17T16:15:45.135Z,23.80
2017-06-17T16:18:12.613Z,23.50
2017-06-17T16:20:40.112Z,23.40
2017-06-17T16:23:07.657Z,23.40
2017-06-17T16:25:35.201Z,23.60
2017-06-17T16:28:02.680Z,23.70
2017-06-17T16:30:30.327Z,23.70
2017-06-17T16:32:57.828Z,23.60
2017-06-17T16:35:25.305Z,23.50
2017-06-17T16:37:53.016Z,23.50
2017-06-17T16:40:20.501Z,23.50
2017-06-17T16:42:48.004Z,23.30
2017-06-17T16:45:15.548Z,23.30
2017-06-17T16:47:43.097Z,23.30
2017-06-17T16:50:10.836Z,23.30
2017-06-17T16:52:38.380Z,23.20
2017-06-17T16:55:05.954Z,23.30
2017-06-17T16:57:34.460Z,23.30
2017-06-17T17:00:01.940Z,23.20
2017-06-17T17:02:29.476Z,23.20
2017-06-17T17:04:57.228Z,23.30
2017-06-17T17:07:24.710Z,23.40
2017-06-17T17:09:52.196Z,23.40
2017-06-17T17:12:19.729Z,23.40
2017-06-17T17:14:47.208Z,23.20
2017-06-17T17:17:14.704Z,23.20
2017-06-17T17:19:42.257Z,23.20
2017-06-17T17:22:09.791Z,23.30
2017-06-17T17:24:37.304Z,23.30
2017-06-17T17:27:04.879Z,23.20
2017-06-17T17:29:32.424Z,23.10
2017-06-17T17:31:59.968Z,23.00
2017-06-17T17:34:27.448Z,23.00
2017-06-17T17:36:54.934Z,23.10
2017-06-17T17:39:23.212Z,23.10
2017-06-17T17:41:50.757Z,23.10
2017-06-17T17:44:18.258Z,23.10
2017-06-17T17:46:45.824Z,23.00
2017-06-17T17:49:13.472Z,23.00
2017-06-17T17:51:41.720Z,23.00
2017-06-17T17:54:10.017Z,22.90
2017-06-17T17:56:38.296Z,22.80
2017-06-17T17:59:06.052Z,22.80
2017-06-17T18:01:33.542Z,22.70
2017-06-17T18:04:01.801Z,22.60
2017-06-17T18:06:29.309Z,22.60
2017-06-17T18:08:56.792Z,22.70
2017-06-17T18:11:24.381Z,22.70
2017-06-17T18:13:51.919Z,22.70
2017-06-17T18:16:19.395Z,22.70
2017-06-17T18:18:46.897Z,22.70
2017-06-17T18:21:14.542Z,22.70
2017-06-17T18:23:42.020Z,22.60
2017-06-17T18:26:09.545Z,22.60
2017-06-17T18:28:37.071Z,22.60
2017-06-17T18:31:04.552Z,22.60
2017-06-17T18:33:32.073Z,22.60
2017-06-17T18:35:59.552Z,22.60
2017-06-17T18:38:27.044Z,22.60
2017-06-17T18:40:54.593Z,22.50
2017-06-17T18:43:22.085Z,22.50
2017-06-17T18:45:49.677Z,22.40
2017-06-17T18:48:17.200Z,22.40
2017-06-17T18:50:45.481Z,22.50
2017-06-17T18:53:13.024Z,22.50
2017-06-17T18:55:40.668Z,22.40
2017-06-17T18:58:08.169Z,22.40
2017-06-17T19:00:35.768Z,22.40
2017-06-17T19:03:03.291Z,22.40
2017-06-17T19:05:30.788Z,22.40
2017-06-17T19:07:58.488Z,22.30
2017-06-17T19:10:26.008Z,22.40
2017-06-17T19:12:53.557Z,22.40
2017-06-17T19:15:21.101Z,22.30
2017-06-17T19:17:48.648Z,22.20
2017-06-17T19:20:16.187Z,22.20
2017-06-17T19:22:43.711Z,22.10
2017-06-17T19:25:11.961Z,22.20
2017-06-17T19:27:40.221Z,22.20
2017-06-17T19:30:08.509Z,22.20
2017-06-17T19:32:35.988Z,22.20
2017-06-17T19:35:03.477Z,22.20
2017-06-17T19:37:31.853Z,22.10
2017-06-17T19:39:59.335Z,22.10
2017-06-17T19:42:26.812Z,22.10
2017-06-17T19:44:55.091Z,22.10
2017-06-17T19:47:22.594Z,22.00
2017-06-17T19:49:50.189Z,22.10
2017-06-17T19:52:17.728Z,22.00
2017-06-17T19:54:45.215Z,22.00
2017-06-17T19:57:12.712Z,22.00
2017-06-17T19:59:40.262Z,22.00
2017-06-17T20:02:07.760Z,22.00
2017-06-17T20:04:35.348Z,22.00
2017-06-17T20:07:02.884Z,21.90
2017-06-17T20:09:30.433Z,21.90
2017-06-17T20:11:57.980Z,21.80
2017-06-17T20:14:25.460Z,21.80
2017-06-17T20:16:53.165Z,21.80
2017-06-17T20:19:20.645Z,21.80
2017-06-17T20:21:53.997Z,21.80
2017-06-17T20:24:27.136Z,21.70
2017-06-17T20:26:55.420Z,21.70
2017-06-17T20:29:22.944Z,21.70
2017-06-17T20:31:51.194Z,21.70
2017-06-17T20:34:19.488Z,21.60
2017-06-17T20:36:46.976Z,21.60
2017-06-17T20:39:14.672Z,21.60
2017-06-17T20:41:42.247Z,21.50
2017-06-17T20:44:09.765Z,21.60
2017-06-17T20:46:37.307Z,21.50
2017-06-17T20:49:04.789Z,21.50
2017-06-17T20:51:32.264Z,21.50
2017-06-17T20:54:00.551Z,21.40
2017-06-17T20:56:28.036Z,21.40
2017-06-17T20:58:55.561Z,21.30
2017-06-17T21:01:23.172Z,21.30
2017-06-17T21:03:50.720Z,21.30
2017-06-17T21:06:18.225Z,21.20
2017-06-17T21:08:45.817Z,21.20
2017-06-17T21:11:13.386Z,21.10
2017-06-17T21:13:40.876Z,21.10
2017-06-17T21:16:09.360Z,21.00
2017-06-17T21:18:36.839Z,21.00
2017-06-17T21:21:04.349Z,20.90
2017-06-17T21:23:32.101Z,20.80
2017-06-17T21:25:59.649Z,20.80
2017-06-17T21:28:27.276Z,20.70
2017-06-17T21:30:54.769Z,20.60
2017-06-17T21:33:22.269Z,20.50
2017-06-17T21:35:49.748Z,20.40
2017-06-17T21:38:17.264Z,20.30
2017-06-17T21:40:44.775Z,20.20
2017-06-17T21:43:13.040Z,20.10
2017-06-17T21:45:41.316Z,20.00
2017-06-17T21:48:08.859Z,20.00
2017-06-17T21:50:36.605Z,19.90
2017-06-17T21:53:04.088Z,19.80
2017-06-17T21:55:31.592Z,19.80
2017-06-17T21:57:59.081Z,19.70
2017-06-17T22:00:26.572Z,19.60
2017-06-17T22:02:54.119Z,19.60
2017-06-17T22:05:21.996Z,19.50
2017-06-17T22:07:49.521Z,19.40
2017-06-17T22:10:17.265Z,19.30
2017-06-17T22:12:44.817Z,19.30
2017-06-17T22:15:12.350Z,19.20
2017-06-17T22:17:39.996Z,19.10
2017-06-17T22:20:07.544Z,19.10
2017-06-17T22:22:35.080Z,19.00
2017-06-17T22:25:02.629Z,18.90
2017-06-17T22:27:30.164Z,18.80
2017-06-17T22:29:57.713Z,18.80
2017-06-17T22:32:25.202Z,18.70
2017-06-17T22:34:52.693Z,18.70
2017-06-17T22:37:20.213Z,18.60
2017-06-17T22:39:48.472Z,18.50
2017-06-17T22:42:16.765Z,18.50
2017-06-17T22:44:44.300Z,18.50
2017-06-17T22:47:11.852Z,18.40
2017-06-17T22:49:39.391Z,18.40
2017-06-17T22:52:06.880Z,18.30
2017-06-17T22:54:34.377Z,18.30
2017-06-17T22:57:02.120Z,18.20
2017-06-17T22:59:29.672Z,18.20
2017-06-17T23:01:57.160Z,18.20
2017-06-17T23:04:24.648Z,18.10
2017-06-17T23:06:52.196Z,18.10
2017-06-17T23:09:19.748Z,18.10
2017-06-17T23:11:47.728Z,18.10
2017-06-17T23:14:15.274Z,18.00
2017-06-17T23:16:42.880Z,18.00
2017-06-17T23:19:10.533Z,17.90
2017-06-17T23:21:38.076Z,17.90
2017-06-17T23:24:05.577Z,17.90
2017-06-17T23:26:33.059Z,17.80
2017-06-17T23:29:00.799Z,17.80
2017-06-17T23:31:28.284Z,17.80
2017-06-17T23:33:55.772Z,17.80
2017-06-17T23:36:24.148Z,17.70
2017-06-17T23:38:51.639Z,17.70
2017-06-17T23:41:19.143Z,17.70
2017-06-17T23:43:46.672Z,17.60
2017-06-17T23:46:14.178Z,17.60
2017-06-17T23:48:41.764Z,17.60
2017-06-17T23:51:09.304Z,17.60
2017-06-17T23:53:36.852Z,17.50
2017-06-17T23:56:04.340Z,17.50
2017-06-17T23:58:31.941Z,17.40
